createdAt,value
2019-05-08T00:00:47.533Z,12.80
2019-05-08T00:03:22.395Z,12.80
2019-05-08T00:05:52.574Z,12.70
2019-05-08T00:08:20.083Z,12.80
2019-05-08T00:10:48.020Z,12.70
2019-05-08T00:13:15.886Z,12.80
2019-05-08T00:15:46.035Z,12.80
2019-05-08T00:18:13.998Z,12.80
2019-05-08T00:20:42.826Z,12.80
2019-05-08T00:23:12.184Z,12.70
2019-05-08T00:25:42.235Z,12.70
2019-05-08T00:28:09.933Z,12.70
2019-05-08T00:30:37.713Z,12.80
2019-05-08T00:33:25.091Z,12.80
2019-05-08T00:35:52.948Z,12.80
2019-05-08T00:38:23.072Z,12.70
2019-05-08T00:41:02.176Z,12.70
2019-05-08T00:43:30.087Z,12.70
2019-05-08T00:45:58.528Z,12.70
2019-05-08T00:48:26.378Z,12.80
2019-05-08T00:50:55.084Z,12.70
2019-05-08T00:53:23.068Z,12.80
2019-05-08T00:55:53.632Z,12.70
2019-05-08T00:58:24.935Z,12.80
2019-05-08T01:01:12.071Z,12.80
2019-05-08T01:03:42.116Z,12.80
2019-05-08T01:06:09.288Z,12.70
2019-05-08T01:08:37.022Z,12.80
2019-05-08T01:11:04.917Z,12.80
2019-05-08T01:13:32.603Z,12.70
2019-05-08T01:16:02.386Z,12.80
2019-05-08T01:18:34.060Z,12.80
2019-05-08T01:21:03.041Z,12.70
2019-05-08T01:23:31.838Z,12.70
2019-05-08T01:26:01.868Z,12.70
2019-05-08T01:28:31.993Z,12.80
2019-05-08T01:30:59.043Z,12.80
2019-05-08T01:33:26.815Z,12.80
2019-05-08T01:35:54.384Z,12.80
2019-05-08T01:38:42.848Z,12.80
2019-05-08T01:41:17.850Z,12.60
2019-05-08T01:43:45.308Z,12.80
2019-05-08T01:46:12.647Z,12.80
2019-05-08T01:48:41.975Z,12.70
2019-05-08T01:51:09.629Z,12.70
2019-05-08T01:53:36.997Z,12.70
2019-05-08T01:56:04.512Z,12.70
2019-05-08T01:58:33.163Z,12.80
2019-05-08T02:01:02.135Z,12.80
2019-05-08T02:03:29.753Z,12.70
2019-05-08T02:05:57.507Z,12.70
2019-05-08T02:08:24.975Z,12.70
2019-05-08T02:10:52.510Z,12.70
2019-05-08T02:13:22.576Z,12.70
2019-05-08T02:15:49.684Z,12.70
2019-05-08T02:18:17.706Z,12.70
2019-05-08T02:20:52.863Z,12.70
2019-05-08T02:23:23.248Z,12.70
2019-05-08T02:25:57.634Z,12.70
2019-05-08T02:28:25.661Z,12.70
2019-05-08T02:30:53.830Z,12.60
2019-05-08T02:33:23.205Z,12.60
2019-05-08T02:35:54.371Z,12.60
2019-05-08T02:38:21.359Z,12.60
2019-05-08T02:40:50.676Z,12.60
2019-05-08T02:43:21.606Z,12.60
2019-05-08T02:45:50.308Z,12.60
2019-05-08T02:48:17.429Z,12.60
2019-05-08T02:50:45.369Z,12.50
2019-05-08T02:53:13.106Z,12.50
2019-05-08T02:55:40.662Z,12.50
2019-05-08T02:58:11.013Z,12.50
2019-05-08T03:00:40.848Z,12.50
2019-05-08T03:03:24.284Z,12.50
2019-05-08T03:05:52.181Z,12.50
2019-05-08T03:08:20.749Z,12.50
2019-05-08T03:10:50.906Z,12.50
2019-05-08T03:13:21.115Z,12.50
2019-05-08T03:15:50.616Z,12.50
2019-05-08T03:18:21.030Z,12.50
2019-05-08T03:20:51.151Z,12.50
2019-05-08T03:23:20.538Z,12.40
2019-05-08T03:26:06.826Z,12.40
2019-05-08T03:28:34.917Z,12.50
2019-05-08T03:31:24.258Z,12.50
2019-05-08T03:33:54.074Z,12.40
2019-05-08T03:36:24.017Z,12.50
2019-05-08T03:38:52.251Z,12.40
2019-05-08T03:41:20.749Z,12.40
2019-05-08T03:43:49.989Z,12.40
2019-05-08T03:46:50.127Z,12.40
2019-05-08T03:49:20.878Z,12.40
2019-05-08T03:51:50.580Z,12.40
2019-05-08T03:54:21.078Z,12.40
2019-05-08T03:56:50.768Z,12.40
2019-05-08T03:59:30.238Z,12.40
2019-05-08T04:01:49.984Z,12.40
2019-05-08T04:04:16.373Z,12.40
2019-05-08T04:06:44.350Z,12.40
2019-05-08T04:09:12.937Z,12.40
2019-05-08T04:11:40.887Z,12.40
2019-05-08T04:14:10.214Z,12.40
2019-05-08T04:17:10.542Z,12.40
2019-05-08T04:19:40.437Z,12.40
2019-05-08T04:22:10.983Z,12.40
2019-05-08T04:24:40.227Z,12.40
2019-05-08T04:27:11.880Z,12.40
2019-05-08T04:29:47.986Z,12.40
2019-05-08T04:32:11.138Z,12.40
2019-05-08T04:34:41.500Z,12.40
2019-05-08T04:37:11.029Z,12.40
2019-05-08T04:39:40.682Z,12.50
2019-05-08T04:42:10.998Z,12.40
2019-05-08T04:44:41.234Z,12.40
2019-05-08T04:47:31.036Z,12.40
2019-05-08T04:50:01.989Z,12.40
2019-05-08T04:52:37.116Z,12.40
2019-05-08T04:55:34.635Z,12.40
2019-05-08T04:58:06.916Z,12.50
2019-05-08T05:00:32.743Z,12.50
2019-05-08T05:03:00.912Z,12.50
2019-05-08T05:05:30.359Z,12.50
2019-05-08T05:07:59.837Z,12.50
2019-05-08T05:10:30.639Z,12.50
2019-05-08T05:12:59.732Z,12.50
2019-05-08T05:15:34.010Z,12.50
2019-05-08T05:18:01.834Z,12.50
2019-05-08T05:20:29.517Z,12.50
2019-05-08T05:22:59.989Z,12.50
2019-05-08T05:25:30.328Z,12.50
2019-05-08T05:28:00.121Z,12.60
2019-05-08T05:30:29.455Z,12.60
2019-05-08T05:33:00.180Z,12.60
2019-05-08T05:35:29.087Z,12.60
2019-05-08T05:37:59.171Z,12.60
2019-05-08T05:40:32.314Z,12.60
2019-05-08T05:43:09.500Z,12.60
2019-05-08T05:45:39.488Z,12.70
2019-05-08T05:48:10.423Z,12.70
2019-05-08T05:50:39.779Z,12.70
2019-05-08T05:53:09.098Z,12.70
2019-05-08T05:55:39.438Z,12.70
2019-05-08T05:58:06.758Z,12.70
2019-05-08T06:00:43.151Z,12.70
2019-05-08T06:03:10.091Z,12.80
2019-05-08T06:05:39.246Z,12.70
2019-05-08T06:08:09.661Z,12.70
2019-05-08T06:10:39.046Z,12.70
2019-05-08T06:13:06.548Z,12.80
2019-05-08T06:15:34.393Z,12.70
2019-05-08T06:18:10.132Z,12.80
2019-05-08T06:20:39.499Z,12.80
2019-05-08T06:23:09.785Z,12.80
2019-05-08T06:25:42.490Z,12.80
2019-05-08T06:28:07.344Z,12.80
2019-05-08T06:30:50.093Z,12.80
2019-05-08T06:33:06.126Z,12.80
2019-05-08T06:35:35.325Z,12.80
2019-05-08T06:38:03.835Z,12.80
2019-05-08T06:40:32.417Z,12.80
2019-05-08T06:43:12.817Z,12.80
2019-05-08T06:46:04.343Z,12.90
2019-05-08T06:48:33.161Z,12.90
2019-05-08T06:51:09.263Z,12.90
2019-05-08T06:53:39.734Z,12.90
2019-05-08T06:56:10.434Z,12.90
2019-05-08T06:58:40.198Z,12.90
2019-05-08T07:01:17.844Z,13.00
2019-05-08T07:03:50.009Z,13.00
2019-05-08T07:06:20.017Z,13.00
2019-05-08T07:08:49.826Z,13.00
2019-05-08T07:11:20.401Z,13.00
2019-05-08T07:13:50.022Z,13.00
2019-05-08T07:16:35.844Z,13.10
2019-05-08T07:19:26.779Z,13.10
2019-05-08T07:21:56.465Z,13.10
2019-05-08T07:24:24.657Z,13.10
2019-05-08T07:26:52.771Z,13.10
2019-05-08T07:29:22.552Z,13.20
2019-05-08T07:31:50.028Z,13.20
2019-05-08T07:34:19.569Z,13.20
2019-05-08T07:36:49.759Z,13.20
2019-05-08T07:39:17.527Z,13.20
2019-05-08T07:41:49.014Z,13.20
2019-05-08T07:44:26.443Z,13.20
2019-05-08T07:46:49.562Z,13.20
2019-05-08T07:49:19.719Z,13.20
2019-05-08T07:51:49.233Z,13.20
2019-05-08T07:54:19.410Z,13.30
2019-05-08T07:56:47.159Z,13.20
2019-05-08T07:59:15.646Z,13.20
2019-05-08T08:01:46.263Z,13.20
2019-05-08T08:04:39.564Z,13.20
2019-05-08T08:07:19.985Z,13.20
2019-05-08T08:09:49.935Z,13.20
2019-05-08T08:12:20.574Z,13.20
2019-05-08T08:14:49.833Z,13.30
2019-05-08T08:17:23.426Z,13.30
2019-05-08T08:19:51.835Z,13.30
2019-05-08T08:22:21.047Z,13.30
2019-05-08T08:24:50.343Z,13.40
2019-05-08T08:27:20.175Z,13.40
2019-05-08T08:29:49.580Z,13.40
2019-05-08T08:32:19.491Z,13.40
2019-05-08T08:34:49.753Z,13.40
2019-05-08T08:37:19.698Z,13.50
2019-05-08T08:39:49.334Z,13.50
2019-05-08T08:42:19.353Z,13.50
2019-05-08T08:44:50.217Z,13.50
2019-05-08T08:47:36.021Z,13.60
2019-05-08T08:50:12.537Z,13.60
2019-05-08T08:52:50.340Z,13.60
2019-05-08T08:55:20.164Z,13.60
2019-05-08T08:57:49.702Z,13.60
2019-05-08T09:00:40.213Z,13.70
2019-05-08T09:03:10.219Z,13.70
2019-05-08T09:05:40.009Z,13.70
2019-05-08T09:08:10.172Z,13.70
2019-05-08T09:10:40.145Z,13.80
2019-05-08T09:13:10.502Z,13.80
2019-05-08T09:15:40.163Z,13.80
2019-05-08T09:18:10.005Z,13.90
2019-05-08T09:20:40.468Z,13.90
2019-05-08T09:23:10.061Z,13.90
2019-05-08T09:25:39.322Z,13.90
2019-05-08T09:28:09.082Z,13.90
2019-05-08T09:30:41.985Z,13.90
2019-05-08T09:33:10.380Z,13.90
2019-05-08T09:35:39.756Z,13.90
2019-05-08T09:38:09.478Z,13.90
2019-05-08T09:40:39.771Z,14.00
2019-05-08T09:43:09.528Z,14.00
2019-05-08T09:45:40.147Z,14.00
2019-05-08T09:48:09.785Z,14.00
2019-05-08T09:50:39.629Z,14.00
2019-05-08T09:53:07.153Z,14.00
2019-05-08T09:55:35.008Z,14.00
2019-05-08T09:58:03.258Z,14.00
2019-05-08T10:00:41.394Z,14.00
2019-05-08T10:03:10.348Z,14.00
2019-05-08T10:05:39.494Z,14.00
2019-05-08T10:08:09.653Z,14.00
2019-05-08T10:10:39.444Z,14.00
2019-05-08T10:13:07.746Z,14.00
2019-05-08T10:15:36.586Z,13.90
2019-05-08T10:18:04.606Z,13.90
2019-05-08T10:20:34.846Z,14.00
2019-05-08T10:23:02.274Z,13.90
2019-05-08T10:25:32.418Z,14.00
2019-05-08T10:27:59.890Z,14.00
2019-05-08T10:30:41.876Z,14.00
2019-05-08T10:33:11.169Z,14.00
2019-05-08T10:35:48.988Z,14.00
2019-05-08T10:38:16.773Z,14.00
2019-05-08T10:40:51.860Z,13.70
2019-05-08T10:43:20.249Z,14.00
2019-05-08T10:45:48.299Z,14.00
2019-05-08T10:48:15.991Z,14.00
2019-05-08T10:50:43.846Z,14.00
2019-05-08T10:53:11.806Z,14.00
2019-05-08T10:55:40.456Z,14.00
2019-05-08T10:58:09.557Z,13.90
2019-05-08T11:00:39.945Z,14.00
2019-05-08T11:03:18.726Z,14.00
2019-05-08T11:06:10.844Z,14.00
2019-05-08T11:08:52.761Z,14.00
2019-05-08T11:11:27.848Z,14.00
2019-05-08T11:13:54.843Z,14.00
2019-05-08T11:16:22.630Z,14.10
2019-05-08T11:18:50.681Z,14.10
2019-05-08T11:21:19.652Z,14.10
2019-05-08T11:23:47.895Z,14.10
2019-05-08T11:26:15.874Z,14.10
2019-05-08T11:28:43.975Z,14.20
2019-05-08T11:31:12.925Z,14.20
2019-05-08T11:33:42.423Z,14.20
2019-05-08T11:36:10.687Z,14.20
2019-05-08T11:38:40.903Z,14.20
2019-05-08T11:41:13.717Z,14.20
2019-05-08T11:43:55.720Z,14.20
2019-05-08T11:46:43.409Z,14.20
2019-05-08T11:49:11.042Z,14.20
2019-05-08T11:51:40.061Z,14.20
2019-05-08T11:54:09.444Z,14.20
2019-05-08T11:56:39.591Z,14.20
2019-05-08T11:59:09.856Z,14.20
2019-05-08T12:01:41.349Z,14.30
2019-05-08T12:04:09.556Z,14.30
2019-05-08T12:06:39.501Z,14.20
2019-05-08T12:09:07.380Z,14.30
2019-05-08T12:11:36.397Z,14.30
2019-05-08T12:14:04.777Z,14.30
2019-05-08T12:16:36.915Z,14.30
2019-05-08T12:19:05.120Z,14.30
2019-05-08T12:21:32.976Z,14.30
2019-05-08T12:24:00.808Z,14.30
2019-05-08T12:26:33.510Z,14.30
2019-05-08T12:29:30.616Z,14.30
2019-05-08T12:32:30.596Z,14.30
2019-05-08T12:35:01.265Z,14.30
2019-05-08T12:37:29.760Z,14.30
2019-05-08T12:39:59.795Z,14.30
2019-05-08T12:42:28.108Z,14.30
2019-05-08T12:44:55.875Z,14.30
2019-05-08T12:47:23.447Z,14.40
2019-05-08T12:49:51.617Z,14.40
2019-05-08T12:52:23.351Z,14.30
2019-05-08T12:54:59.644Z,14.30
2019-05-08T12:57:30.038Z,14.30
2019-05-08T12:59:59.206Z,14.40
2019-05-08T13:02:26.916Z,14.30
2019-05-08T13:04:54.559Z,14.30
2019-05-08T13:07:22.910Z,14.40
2019-05-08T13:09:50.930Z,14.30
2019-05-08T13:12:19.376Z,14.30
2019-05-08T13:14:50.179Z,14.30
2019-05-08T13:17:18.059Z,14.30
2019-05-08T13:19:50.084Z,14.30
2019-05-08T13:22:20.905Z,14.30
2019-05-08T13:24:50.802Z,14.30
2019-05-08T13:27:20.193Z,14.40
2019-05-08T13:29:49.193Z,14.30
2019-05-08T13:32:16.991Z,14.40
2019-05-08T13:35:06.344Z,14.30
2019-05-08T13:37:21.657Z,14.30
2019-05-08T13:39:46.003Z,14.30
2019-05-08T13:42:16.594Z,14.30
2019-05-08T13:44:44.215Z,14.30
2019-05-08T13:47:35.968Z,14.30
2019-05-08T13:50:04.418Z,14.30
2019-05-08T13:52:50.093Z,14.30
2019-05-08T13:55:19.818Z,14.30
2019-05-08T13:57:49.522Z,14.30
2019-05-08T14:00:23.396Z,14.30
2019-05-08T14:02:51.452Z,14.30
2019-05-08T14:05:26.288Z,14.30
2019-05-08T14:07:50.305Z,14.30
2019-05-08T14:10:19.926Z,14.30
2019-05-08T14:12:49.832Z,14.30
2019-05-08T14:15:19.453Z,14.30
2019-05-08T14:17:54.482Z,14.30
2019-05-08T14:20:22.106Z,14.30
2019-05-08T14:22:50.212Z,14.20
2019-05-08T14:25:19.638Z,14.30
2019-05-08T14:27:49.654Z,14.30
2019-05-08T14:30:20.149Z,14.30
2019-05-08T14:33:20.362Z,14.20
2019-05-08T14:35:52.298Z,14.30
2019-05-08T14:38:21.630Z,14.30
2019-05-08T14:40:50.179Z,14.30
2019-05-08T14:43:20.899Z,14.30
2019-05-08T14:45:48.502Z,14.30
2019-05-08T14:48:16.463Z,14.30
2019-05-08T14:50:45.271Z,14.30
2019-05-08T14:53:15.140Z,14.30
2019-05-08T14:55:43.187Z,14.30
2019-05-08T14:58:10.728Z,14.30
2019-05-08T15:00:39.878Z,14.30
2019-05-08T15:03:09.714Z,14.30
2019-05-08T15:05:56.709Z,14.30
2019-05-08T15:08:11.534Z,14.30
2019-05-08T15:10:39.796Z,14.30
2019-05-08T15:13:09.912Z,14.30
2019-05-08T15:15:40.170Z,14.30
2019-05-08T15:18:10.320Z,14.30
2019-05-08T15:20:37.342Z,14.30
2019-05-08T15:23:05.516Z,14.30
2019-05-08T15:25:35.397Z,14.30
2019-05-08T15:28:10.141Z,14.30
2019-05-08T15:30:53.175Z,14.40
2019-05-08T15:33:31.532Z,14.30
2019-05-08T15:36:13.153Z,14.30
2019-05-08T15:38:32.328Z,14.30
2019-05-08T15:41:02.021Z,14.30
2019-05-08T15:43:31.105Z,14.30
2019-05-08T15:46:00.057Z,14.30
2019-05-08T15:48:29.951Z,14.30
2019-05-08T15:51:00.022Z,14.30
2019-05-08T15:53:29.360Z,14.30
2019-05-08T15:55:59.392Z,14.30
2019-05-08T15:58:27.321Z,14.30
2019-05-08T16:00:55.332Z,14.30
2019-05-08T16:03:23.192Z,14.30
2019-05-08T16:05:54.118Z,14.30
2019-05-08T16:08:22.328Z,14.30
2019-05-08T16:10:50.778Z,14.30
2019-05-08T16:13:19.670Z,14.30
2019-05-08T16:15:49.606Z,14.30
2019-05-08T16:18:19.454Z,14.30
2019-05-08T16:20:46.853Z,14.30
2019-05-08T16:23:24.837Z,14.30
2019-05-08T16:25:53.177Z,14.20
2019-05-08T16:28:23.674Z,14.30
2019-05-08T16:31:17.087Z,14.30
2019-05-08T16:33:54.086Z,14.30
2019-05-08T16:36:24.106Z,14.30
2019-05-08T16:38:53.277Z,14.30
2019-05-08T16:41:23.542Z,14.30
2019-05-08T16:43:51.988Z,14.30
2019-05-08T16:46:25.779Z,14.30
2019-05-08T16:48:57.242Z,14.30
2019-05-08T16:51:25.435Z,14.30
2019-05-08T16:53:54.285Z,14.30
2019-05-08T16:56:25.887Z,14.30
2019-05-08T16:58:54.367Z,14.30
2019-05-08T17:01:24.267Z,14.30
2019-05-08T17:03:53.408Z,14.40
2019-05-08T17:06:21.944Z,14.40
2019-05-08T17:08:54.405Z,14.40
2019-05-08T17:11:23.814Z,14.40
2019-05-08T17:13:54.517Z,14.40
2019-05-08T17:16:24.027Z,14.40
2019-05-08T17:18:54.187Z,14.40
2019-05-08T17:21:47.733Z,14.40
2019-05-08T17:24:34.272Z,14.40
2019-05-08T17:27:27.761Z,14.40
2019-05-08T17:30:14.206Z,14.40
2019-05-08T17:32:42.644Z,14.40
2019-05-08T17:35:10.972Z,14.40
2019-05-08T17:38:10.583Z,14.40
2019-05-08T17:40:39.779Z,14.40
2019-05-08T17:43:08.060Z,14.40
2019-05-08T17:45:36.548Z,14.50
2019-05-08T17:48:04.406Z,14.50
2019-05-08T17:50:33.727Z,14.50
2019-05-08T17:53:04.243Z,14.50
2019-05-08T17:55:34.270Z,14.50
2019-05-08T17:58:03.480Z,14.60
2019-05-08T18:00:34.389Z,14.60
2019-05-08T18:03:03.150Z,14.50
2019-05-08T18:05:30.960Z,14.60
2019-05-08T18:07:59.344Z,14.60
2019-05-08T18:10:29.153Z,14.50
2019-05-08T18:13:04.131Z,14.60
2019-05-08T18:15:43.946Z,14.60
2019-05-08T18:18:14.541Z,14.60
2019-05-08T18:20:54.083Z,14.50
2019-05-08T18:23:34.557Z,14.60
2019-05-08T18:26:20.539Z,14.50
2019-05-08T18:28:48.689Z,14.50
2019-05-08T18:31:47.763Z,14.50
2019-05-08T18:34:23.578Z,14.50
2019-05-08T18:37:00.821Z,14.50
2019-05-08T18:39:31.265Z,14.50
2019-05-08T18:41:59.709Z,14.50
2019-05-08T18:44:28.040Z,14.40
2019-05-08T18:46:56.832Z,14.50
2019-05-08T18:49:24.395Z,14.50
2019-05-08T18:51:53.845Z,14.40
2019-05-08T18:54:47.139Z,14.50
2019-05-08T18:57:16.895Z,14.50
2019-05-08T18:59:44.330Z,14.40
2019-05-08T19:02:15.372Z,14.40
2019-05-08T19:04:45.005Z,14.40
2019-05-08T19:07:18.899Z,14.40
2019-05-08T19:09:44.923Z,14.40
2019-05-08T19:12:14.102Z,14.40
2019-05-08T19:14:43.915Z,14.40
2019-05-08T19:17:11.902Z,14.40
2019-05-08T19:19:53.718Z,14.30
2019-05-08T19:22:20.833Z,14.30
2019-05-08T19:24:49.708Z,14.30
2019-05-08T19:27:38.377Z,14.30
2019-05-08T19:30:07.885Z,14.30
2019-05-08T19:32:36.569Z,14.30
2019-05-08T19:35:08.446Z,14.20
2019-05-08T19:37:37.263Z,14.20
2019-05-08T19:40:06.455Z,14.20
2019-05-08T19:42:52.512Z,14.20
2019-05-08T19:45:20.148Z,14.20
2019-05-08T19:47:47.704Z,14.20
2019-05-08T19:50:15.691Z,14.10
2019-05-08T19:52:43.571Z,14.10
2019-05-08T19:55:13.411Z,14.10
2019-05-08T19:57:43.369Z,14.10
2019-05-08T20:00:14.014Z,14.10
2019-05-08T20:02:43.394Z,14.10
2019-05-08T20:05:14.231Z,14.10
2019-05-08T20:07:43.860Z,14.10
2019-05-08T20:10:12.381Z,14.00
2019-05-08T20:12:40.114Z,14.00
2019-05-08T20:15:07.924Z,14.00
2019-05-08T20:17:39.120Z,14.00
2019-05-08T20:20:08.862Z,14.00
2019-05-08T20:22:36.350Z,13.90
2019-05-08T20:25:03.890Z,13.90
2019-05-08T20:27:33.302Z,13.90
2019-05-08T20:30:01.231Z,13.90
2019-05-08T20:32:29.279Z,13.90
2019-05-08T20:34:56.620Z,13.90
2019-05-08T20:37:24.141Z,13.90
2019-05-08T20:39:53.408Z,13.90
2019-05-08T20:42:23.493Z,13.90
2019-05-08T20:44:53.312Z,13.80
2019-05-08T20:47:21.326Z,13.80
2019-05-08T20:49:48.687Z,13.90
2019-05-08T20:52:16.271Z,13.80
2019-05-08T20:54:44.009Z,13.80
2019-05-08T20:57:33.723Z,13.80
2019-05-08T21:00:01.659Z,13.80
2019-05-08T21:02:29.586Z,13.80
2019-05-08T21:04:57.864Z,14.00
2019-05-08T21:07:25.721Z,13.80
2019-05-08T21:09:55.451Z,13.80
2019-05-08T21:12:23.274Z,13.80
2019-05-08T21:14:51.366Z,13.80
2019-05-08T21:17:19.555Z,13.80
2019-05-08T21:19:49.327Z,13.70
2019-05-08T21:22:30.978Z,13.70
2019-05-08T21:25:01.183Z,13.70
2019-05-08T21:27:27.831Z,13.80
2019-05-08T21:29:55.646Z,13.70
2019-05-08T21:32:24.070Z,13.70
2019-05-08T21:34:53.539Z,13.70
2019-05-08T21:37:23.465Z,13.70
2019-05-08T21:39:51.043Z,13.70
2019-05-08T21:42:18.912Z,13.70
2019-05-08T21:44:46.505Z,13.70
2019-05-08T21:47:14.713Z,13.70
2019-05-08T21:49:55.175Z,13.70
2019-05-08T21:52:14.206Z,13.70
2019-05-08T21:54:43.192Z,13.70
2019-05-08T21:57:10.684Z,13.70
2019-05-08T21:59:38.479Z,13.70
2019-05-08T22:02:07.073Z,13.60
2019-05-08T22:04:34.715Z,13.60
2019-05-08T22:07:03.936Z,13.60
2019-05-08T22:09:41.061Z,13.60
2019-05-08T22:12:03.655Z,13.60
2019-05-08T22:14:31.116Z,13.60
2019-05-08T22:16:59.387Z,13.60
2019-05-08T22:19:27.482Z,13.60
2019-05-08T22:21:55.231Z,13.60
2019-05-08T22:24:23.376Z,13.40
2019-05-08T22:26:53.665Z,13.60
2019-05-08T22:29:20.856Z,13.60
2019-05-08T22:31:48.274Z,13.60
2019-05-08T22:34:45.080Z,13.60
2019-05-08T22:37:16.112Z,13.60
2019-05-08T22:39:53.043Z,13.60
2019-05-08T22:42:16.053Z,13.60
2019-05-08T22:44:44.156Z,13.50
2019-05-08T22:47:13.825Z,13.50
2019-05-08T22:49:43.379Z,13.50
2019-05-08T22:52:10.877Z,13.50
2019-05-08T22:54:38.246Z,13.50
2019-05-08T22:57:05.873Z,13.60
2019-05-08T22:59:33.913Z,13.50
2019-05-08T23:02:04.163Z,13.50
2019-05-08T23:04:33.501Z,13.50
2019-05-08T23:07:03.813Z,13.50
2019-05-08T23:09:33.245Z,13.50
2019-05-08T23:12:01.286Z,13.50
2019-05-08T23:14:29.275Z,13.50
2019-05-08T23:17:15.419Z,13.60
2019-05-08T23:20:03.739Z,13.60
2019-05-08T23:22:33.054Z,13.50
2019-05-08T23:25:01.474Z,13.50
2019-05-08T23:27:29.108Z,13.50
2019-05-08T23:29:56.803Z,13.50
2019-05-08T23:32:25.301Z,13.50
2019-05-08T23:34:54.903Z,13.50
2019-05-08T23:37:24.284Z,13.50
2019-05-08T23:39:53.382Z,13.50
2019-05-08T23:42:23.868Z,13.50
2019-05-08T23:45:14.206Z,13.50
2019-05-08T23:47:43.454Z,13.50
2019-05-08T23:50:11.323Z,13.50
2019-05-08T23:52:38.925Z,13.50
2019-05-08T23:55:07.431Z,13.50
2019-05-08T23:57:35.227Z,13.50
